sensor_id;sensor_type;location;lat;lon;timestamp;pressure;altitude;pressure_sealevel;temperature;humidity
16100;BME280;8154;50.830;12.082;2023-03-14T00:21:23;97260.56;;;24.36;31.67
16100;BME280;8154;50.830;12.082;2023-03-14T00:23:49;97261.03;;;24.28;31.41
16100;BME280;8154;50.830;12.082;2023-03-14T00:26:17;97253.78;;;24.23;31.66
16100;BME280;8154;50.830;12.082;2023-03-14T00:28:44;97251.88;;;24.19;31.54
16100;BME280;8154;50.830;12.082;2023-03-14T00:31:13;97252.97;;;24.23;31.83
16100;BME280;8154;50.830;12.082;2023-03-14T00:33:40;97232.94;;;24.20;31.81
16100;BME280;8154;50.830;12.082;2023-03-14T00:36:08;97218.53;;;24.21;31.86
16100;BME280;8154;50.830;12.082;2023-03-14T00:38:38;97206.00;;;24.22;31.93
16100;BME280;8154;50.830;12.082;2023-03-14T00:41:06;97204.41;;;24.26;31.45
16100;BME280;8154;50.830;12.082;2023-03-14T00:43:32;97199.88;;;24.26;31.65
16100;BME280;8154;50.830;12.082;2023-03-14T00:45:58;97208.72;;;24.32;31.58
16100;BME280;8154;50.830;12.082;2023-03-14T00:48:24;97211.91;;;24.29;31.76
16100;BME280;8154;50.830;12.082;2023-03-14T00:50:50;97213.53;;;24.30;31.66
16100;BME280;8154;50.830;12.082;2023-03-14T00:53:16;97236.69;;;24.24;31.66
16100;BME280;8154;50.830;12.082;2023-03-14T00:55:43;97248.44;;;24.23;31.78
16100;BME280;8154;50.830;12.082;2023-03-14T00:58:11;97268.97;;;24.23;31.66
16100;BME280;8154;50.830;12.082;2023-03-14T01:00:37;97272.72;;;24.22;31.74
16100;BME280;8154;50.830;12.082;2023-03-14T01:03:04;97270.84;;;24.22;31.51
16100;BME280;8154;50.830;12.082;2023-03-14T01:05:31;97268.41;;;24.21;31.71
16100;BME280;8154;50.830;12.082;2023-03-14T01:07:57;97265.75;;;24.21;31.61
16100;BME280;8154;50.830;12.082;2023-03-14T01:10:23;97257.53;;;24.27;31.83
16100;BME280;8154;50.830;12.082;2023-03-14T01:12:49;97268.19;;;24.22;31.86
16100;BME280;8154;50.830;12.082;2023-03-14T01:15:15;97276.22;;;24.27;31.56
16100;BME280;8154;50.830;12.082;2023-03-14T01:17:41;97280.28;;;24.30;31.47
16100;BME280;8154;50.830;12.082;2023-03-14T01:20:10;97274.13;;;24.29;31.58
16100;BME280;8154;50.830;12.082;2023-03-14T01:22:38;97276.53;;;24.31;31.53
16100;BME280;8154;50.830;12.082;2023-03-14T01:25:07;97275.44;;;24.27;31.73
16100;BME280;8154;50.830;12.082;2023-03-14T01:27:33;97276.19;;;24.22;31.86
16100;BME280;8154;50.830;12.082;2023-03-14T01:30:00;97288.16;;;24.20;31.78
16100;BME280;8154;50.830;12.082;2023-03-14T01:32:28;97271.09;;;24.21;31.94
16100;BME280;8154;50.830;12.082;2023-03-14T01:34:54;97290.31;;;24.23;31.72
16100;BME280;8154;50.830;12.082;2023-03-14T01:37:21;97285.59;;;24.30;31.75
16100;BME280;8154;50.830;12.082;2023-03-14T01:39:47;97293.63;;;24.30;31.66
16100;BME280;8154;50.830;12.082;2023-03-14T01:42:14;97282.63;;;24.26;31.70
16100;BME280;8154;50.830;12.082;2023-03-14T01:44:51;97266.06;;;24.24;31.64
16100;BME280;8154;50.830;12.082;2023-03-14T01:47:17;97267.97;;;24.29;31.65
16100;BME280;8154;50.830;12.082;2023-03-14T01:49:46;97261.28;;;24.26;31.56
16100;BME280;8154;50.830;12.082;2023-03-14T01:52:25;97249.25;;;24.24;31.95
16100;BME280;8154;50.830;12.082;2023-03-14T01:54:57;97245.75;;;24.23;31.62
16100;BME280;8154;50.830;12.082;2023-03-14T01:57:29;97247.31;;;24.19;31.96
16100;BME280;8154;50.830;12.082;2023-03-14T02:00:18;97242.53;;;24.21;31.59
16100;BME280;8154;50.830;12.082;2023-03-14T02:02:50;97253.53;;;24.25;31.77
16100;BME280;8154;50.830;12.082;2023-03-14T02:05:23;97247.41;;;24.29;31.80
16100;BME280;8154;50.830;12.082;2023-03-14T02:07:54;97246.34;;;24.30;31.87
16100;BME280;8154;50.830;12.082;2023-03-14T02:10:22;97249.84;;;24.31;31.67
16100;BME280;8154;50.830;12.082;2023-03-14T02:12:51;97250.34;;;24.28;31.62
16100;BME280;8154;50.830;12.082;2023-03-14T02:15:19;97236.44;;;24.26;31.59
16100;BME280;8154;50.830;12.082;2023-03-14T02:17:45;97227.91;;;24.29;31.81
16100;BME280;8154;50.830;12.082;2023-03-14T02:22:55;97207.34;;;24.24;31.82
16100;BME280;8154;50.830;12.082;2023-03-14T02:28:16;97217.25;;;24.29;31.69
16100;BME280;8154;50.830;12.082;2023-03-14T04:30:17;97110.22;;;24.30;31.74
16100;BME280;8154;50.830;12.082;2023-03-14T04:32:43;97115.03;;;24.28;31.82
16100;BME280;8154;50.830;12.082;2023-03-14T04:35:09;97106.22;;;24.28;31.75
16100;BME280;8154;50.830;12.082;2023-03-14T04:37:35;97105.66;;;24.26;31.95
16100;BME280;8154;50.830;12.082;2023-03-14T04:40:02;97107.28;;;24.27;31.88
16100;BME280;8154;50.830;12.082;2023-03-14T04:42:30;97103.81;;;24.26;31.62
16100;BME280;8154;50.830;12.082;2023-03-14T04:44:56;97086.97;;;24.26;31.58
16100;BME280;8154;50.830;12.082;2023-03-14T04:47:22;97086.16;;;24.20;31.61
16100;BME280;8154;50.830;12.082;2023-03-14T04:49:48;97089.59;;;24.21;31.90
16100;BME280;8154;50.830;12.082;2023-03-14T04:52:14;97089.13;;;24.24;31.74
16100;BME280;8154;50.830;12.082;2023-03-14T04:54:40;97101.91;;;24.22;31.83
16100;BME280;8154;50.830;12.082;2023-03-14T04:57:06;97100.56;;;24.24;31.69
16100;BME280;8154;50.830;12.082;2023-03-14T04:59:32;97117.19;;;24.32;31.51
16100;BME280;8154;50.830;12.082;2023-03-14T05:01:58;97109.97;;;24.32;31.43
16100;BME280;8154;50.830;12.082;2023-03-14T05:04:25;97089.69;;;24.31;31.51
16100;BME280;8154;50.830;12.082;2023-03-14T05:06:51;97081.13;;;24.29;31.77
16100;BME280;8154;50.830;12.082;2023-03-14T05:09:17;97072.84;;;24.30;31.47
16100;BME280;8154;50.830;12.082;2023-03-14T05:11:43;97070.44;;;24.29;31.74
16100;BME280;8154;50.830;12.082;2023-03-14T05:14:10;97079.81;;;24.32;31.64
16100;BME280;8154;50.830;12.082;2023-03-14T05:16:36;97081.94;;;24.29;31.58
16100;BME280;8154;50.830;12.082;2023-03-14T05:19:01;97085.16;;;24.32;31.70
16100;BME280;8154;50.830;12.082;2023-03-14T05:21:27;97068.59;;;24.29;31.85
16100;BME280;8154;50.830;12.082;2023-03-14T05:23:53;97066.38;;;24.21;31.86
16100;BME280;8154;50.830;12.082;2023-03-14T05:26:19;97063.50;;;24.28;31.90
16100;BME280;8154;50.830;12.082;2023-03-14T05:28:45;97053.38;;;24.30;31.58
16100;BME280;8154;50.830;12.082;2023-03-14T06:32:22;97097.13;;;24.29;31.71
16100;BME280;8154;50.830;12.082;2023-03-14T06:34:48;97097.16;;;24.34;31.37
16100;BME280;8154;50.830;12.082;2023-03-14T06:37:14;97098.25;;;24.33;31.83
16100;BME280;8154;50.830;12.082;2023-03-14T06:39:40;97103.28;;;24.29;31.60
16100;BME280;8154;50.830;12.082;2023-03-14T06:42:06;97104.09;;;24.30;31.81
16100;BME280;8154;50.830;12.082;2023-03-14T06:44:33;97091.78;;;24.29;31.62
16100;BME280;8154;50.830;12.082;2023-03-14T06:46:59;97093.41;;;24.30;31.79
16100;BME280;8154;50.830;12.082;2023-03-14T06:49:25;97089.94;;;24.29;31.59
16100;BME280;8154;50.830;12.082;2023-03-14T06:51:53;97084.03;;;24.27;31.71
16100;BME280;8154;50.830;12.082;2023-03-14T06:54:19;97094.72;;;24.27;31.68
16100;BME280;8154;50.830;12.082;2023-03-14T06:56:45;97083.00;;;24.33;31.77
16100;BME280;8154;50.830;12.082;2023-03-14T06:59:11;97079.56;;;24.33;31.81
16100;BME280;8154;50.830;12.082;2023-03-14T07:01:38;97088.91;;;24.36;31.54
16100;BME280;8154;50.830;12.082;2023-03-14T07:04:06;97089.47;;;24.38;31.56
16100;BME280;8154;50.830;12.082;2023-03-14T07:06:33;97089.72;;;24.36;31.50
16100;BME280;8154;50.830;12.082;2023-03-14T07:08:59;97096.91;;;24.36;31.44
16100;BME280;8154;50.830;12.082;2023-03-14T07:11:25;97108.91;;;24.33;31.65
16100;BME280;8154;50.830;12.082;2023-03-14T07:13:52;97094.72;;;24.27;31.57
16100;BME280;8154;50.830;12.082;2023-03-14T07:16:18;97094.72;;;24.27;31.53
16100;BME280;8154;50.830;12.082;2023-03-14T07:18:44;97103.59;;;24.33;31.51
16100;BME280;8154;50.830;12.082;2023-03-14T07:21:11;97105.13;;;24.29;31.67
16100;BME280;8154;50.830;12.082;2023-03-14T07:23:37;97111.28;;;24.29;31.91
16100;BME280;8154;50.830;12.082;2023-03-14T07:26:04;97109.97;;;24.32;31.80
16100;BME280;8154;50.830;12.082;2023-03-14T07:28:30;97116.16;;;24.38;31.50
16100;BME280;8154;50.830;12.082;2023-03-14T07:30:57;97114.53;;;24.37;31.43
16100;BME280;8154;50.830;12.082;2023-03-14T07:33:23;97119.13;;;24.41;31.59
16100;BME280;8154;50.830;12.082;2023-03-14T07:35:50;97117.75;;;24.39;31.69
16100;BME280;8154;50.830;12.082;2023-03-14T07:38:16;97122.00;;;24.35;31.76
16100;BME280;8154;50.830;12.082;2023-03-14T07:40:42;97123.88;;;24.34;31.40
16100;BME280;8154;50.830;12.082;2023-03-14T07:43:09;97120.69;;;24.37;31.69
16100;BME280;8154;50.830;12.082;2023-03-14T07:45:35;97120.44;;;24.39;31.63
16100;BME280;8154;50.830;12.082;2023-03-14T07:48:01;97122.28;;;24.38;31.70
16100;BME280;8154;50.830;12.082;2023-03-14T07:50:27;97114.03;;;24.40;31.80
16100;BME280;8154;50.830;12.082;2023-03-14T07:52:54;97107.84;;;24.34;31.82
16100;BME280;8154;50.830;12.082;2023-03-14T07:55:21;97118.00;;;24.37;31.52
16100;BME280;8154;50.830;12.082;2023-03-14T07:57:48;97113.78;;;24.41;31.76
16100;BME280;8154;50.830;12.082;2023-03-14T08:00:15;97106.84;;;24.45;31.71
16100;BME280;8154;50.830;12.082;2023-03-14T08:02:42;97115.34;;;24.37;31.72
16100;BME280;8154;50.830;12.082;2023-03-14T08:05:08;97115.31;;;24.32;31.84
16100;BME280;8154;50.830;12.082;2023-03-14T08:07:35;97117.72;;;24.33;31.90
16100;BME280;8154;50.830;12.082;2023-03-14T08:10:02;97115.63;;;24.41;31.70
16100;BME280;8154;50.830;12.082;2023-03-14T08:12:28;97113.22;;;24.39;31.72
16100;BME280;8154;50.830;12.082;2023-03-14T08:14:54;97115.91;;;24.39;31.46
16100;BME280;8154;50.830;12.082;2023-03-14T08:17:20;97117.44;;;24.30;31.85
16100;BME280;8154;50.830;12.082;2023-03-14T08:19:46;97119.81;;;24.26;32.00
16100;BME280;8154;50.830;12.082;2023-03-14T08:22:13;97111.03;;;24.31;31.92
16100;BME280;8154;50.830;12.082;2023-03-14T08:24:40;97123.09;;;24.39;31.43
16100;BME280;8154;50.830;12.082;2023-03-14T08:27:07;97114.25;;;24.33;31.70
16100;BME280;8154;50.830;12.082;2023-03-14T08:29:33;97100.66;;;24.35;31.88
16100;BME280;8154;50.830;12.082;2023-03-14T08:31:59;97098.81;;;24.40;31.78
16100;BME280;8154;50.830;12.082;2023-03-14T08:34:26;97113.28;;;24.44;31.48
16100;BME280;8154;50.830;12.082;2023-03-14T08:36:52;97106.31;;;24.43;31.62
16100;BME280;8154;50.830;12.082;2023-03-14T08:39:18;97109.28;;;24.47;31.25
16100;BME280;8154;50.830;12.082;2023-03-14T08:41:44;97104.75;;;24.47;31.15
16100;BME280;8154;50.830;12.082;2023-03-14T08:44:10;97110.84;;;24.43;31.57
16100;BME280;8154;50.830;12.082;2023-03-14T08:46:39;97112.13;;;24.35;31.44
16100;BME280;8154;50.830;12.082;2023-03-14T08:49:05;97119.00;;;24.26;31.62
16100;BME280;8154;50.830;12.082;2023-03-14T08:51:32;97117.44;;;24.30;31.72
16100;BME280;8154;50.830;12.082;2023-03-14T08:53:58;97114.00;;;24.35;31.72
16100;BME280;8154;50.830;12.082;2023-03-14T08:56:24;97122.78;;;24.35;31.80
16100;BME280;8154;50.830;12.082;2023-03-14T08:58:50;97114.78;;;24.30;31.78
16100;BME280;8154;50.830;12.082;2023-03-14T09:01:16;97116.66;;;24.35;31.52
16100;BME280;8154;50.830;12.082;2023-03-14T09:03:42;97119.63;;;24.38;31.41
16100;BME280;8154;50.830;12.082;2023-03-14T09:06:09;97122.28;;;24.38;31.48
16100;BME280;8154;50.830;12.082;2023-03-14T09:08:36;97123.91;;;24.39;31.54
16100;BME280;8154;50.830;12.082;2023-03-14T09:11:02;97119.88;;;24.37;31.82
16100;BME280;8154;50.830;12.082;2023-03-14T09:13:28;97128.94;;;24.36;31.40
16100;BME280;8154;50.830;12.082;2023-03-14T09:15:56;97127.59;;;24.33;31.75
16100;BME280;8154;50.830;12.082;2023-03-14T09:18:22;97122.53;;;24.32;31.48
16100;BME280;8154;50.830;12.082;2023-03-14T09:20:49;97124.44;;;24.36;31.84
16100;BME280;8154;50.830;12.082;2023-03-14T09:23:15;97119.59;;;24.33;31.68
16100;BME280;8154;50.830;12.082;2023-03-14T09:25:41;97127.06;;;24.31;31.65
16100;BME280;8154;50.830;12.082;2023-03-14T09:28:07;97128.13;;;24.35;31.55
16100;BME280;8154;50.830;12.082;2023-03-14T09:30:34;97124.44;;;24.36;31.67
16100;BME280;8154;50.830;12.082;2023-03-14T09:33:00;97124.44;;;24.36;31.71
16100;BME280;8154;50.830;12.082;2023-03-14T09:35:27;97132.44;;;24.36;31.81
16100;BME280;8154;50.830;12.082;2023-03-14T09:37:53;97132.38;;;24.31;31.65
16100;BME280;8154;50.830;12.082;2023-03-14T09:40:20;97131.06;;;24.28;31.82
16100;BME280;8154;50.830;12.082;2023-03-14T09:42:50;97126.53;;;24.34;31.45
16100;BME280;8154;50.830;12.082;2023-03-14T09:45:25;97116.13;;;24.33;31.85
16100;BME280;8154;50.830;12.082;2023-03-14T09:47:53;97118.00;;;24.37;31.66
16100;BME280;8154;50.830;12.082;2023-03-14T09:50:20;97122.31;;;24.43;31.72
16100;BME280;8154;50.830;12.082;2023-03-14T09:52:50;97111.38;;;24.40;31.72
16100;BME280;8154;50.830;12.082;2023-03-14T09:55:22;97113.53;;;24.43;31.80
16100;BME280;8154;50.830;12.082;2023-03-14T09:57:51;97112.50;;;24.49;31.68
16100;BME280;8154;50.830;12.082;2023-03-14T10:00:26;97104.50;;;24.54;31.36
16100;BME280;8154;50.830;12.082;2023-03-14T10:03:06;97111.16;;;24.51;31.71
16100;BME280;8154;50.830;12.082;2023-03-14T10:05:41;97104.47;;;24.49;31.29
16100;BME280;8154;50.830;12.082;2023-03-14T10:08:10;97106.91;;;24.50;31.41
16100;BME280;8154;50.830;12.082;2023-03-14T10:10:37;97110.59;;;24.49;31.32
16100;BME280;8154;50.830;12.082;2023-03-14T10:13:18;97117.28;;;24.47;31.47
16100;BME280;8154;50.830;12.082;2023-03-14T10:16:04;97125.81;;;24.44;31.75
16100;BME280;8154;50.830;12.082;2023-03-14T10:18:34;97117.50;;;24.40;31.66
16100;BME280;8154;50.830;12.082;2023-03-14T10:21:18;97118.56;;;24.39;31.90
16100;BME280;8154;50.830;12.082;2023-03-14T10:23:46;97112.19;;;24.45;31.36
16100;BME280;8154;50.830;12.082;2023-03-14T10:26:17;97115.94;;;24.49;31.58
16100;BME280;8154;50.830;12.082;2023-03-14T10:28:50;97114.59;;;24.47;31.53
16100;BME280;8154;50.830;12.082;2023-03-14T10:31:17;97134.13;;;24.52;31.42
16100;BME280;8154;50.830;12.082;2023-03-14T10:34:01;97129.06;;;24.56;31.48
16100;BME280;8154;50.830;12.082;2023-03-14T10:36:32;97133.59;;;24.55;31.49
16100;BME280;8154;50.830;12.082;2023-03-14T10:41:50;97145.88;;;24.51;31.29
16100;BME280;8154;50.830;12.082;2023-03-14T10:44:22;97141.59;;;24.50;31.48
16100;BME280;8154;50.830;12.082;2023-03-14T10:47:03;97152.53;;;24.49;31.39
16100;BME280;8154;50.830;12.082;2023-03-14T10:49:33;97155.47;;;24.47;31.62
16100;BME280;8154;50.830;12.082;2023-03-14T10:52:30;97143.50;;;24.55;31.78
16100;BME280;8154;50.830;12.082;2023-03-14T10:55:03;97159.75;;;24.48;31.80
16100;BME280;8154;50.830;12.082;2023-03-14T10:57:30;97165.13;;;24.53;31.41
16100;BME280;8154;50.830;12.082;2023-03-14T10:59:56;97162.97;;;24.55;31.54
16100;BME280;8154;50.830;12.082;2023-03-14T11:05:29;97162.72;;;24.52;31.55
16100;BME280;8154;50.830;12.082;2023-03-14T11:08:02;97168.56;;;24.54;31.38
16100;BME280;8154;50.830;12.082;2023-03-14T11:10:34;97156.81;;;24.50;31.59
16100;BME280;8154;50.830;12.082;2023-03-14T11:13:12;97158.13;;;24.47;31.52
16100;BME280;8154;50.830;12.082;2023-03-14T11:15:58;97159.47;;;24.50;31.40
16100;BME280;8154;50.830;12.082;2023-03-14T11:21:21;97146.34;;;24.43;31.77
16100;BME280;8154;50.830;12.082;2023-03-14T11:29:08;97162.09;;;24.40;32.01
16100;BME280;8154;50.830;12.082;2023-03-14T11:31:40;97159.19;;;24.46;31.63
16100;BME280;8154;50.830;12.082;2023-03-14T11:34:12;97157.63;;;24.50;31.54
16100;BME280;8154;50.830;12.082;2023-03-14T11:39:17;97146.38;;;24.48;31.48
16100;BME280;8154;50.830;12.082;2023-03-14T11:41:46;97147.72;;;24.51;31.76
16100;BME280;8154;50.830;12.082;2023-03-14T11:44:21;97147.97;;;24.44;31.67
16100;BME280;8154;50.830;12.082;2023-03-14T11:46:56;97143.19;;;24.51;31.54
16100;BME280;8154;50.830;12.082;2023-03-14T11:52:02;97135.16;;;24.46;31.48
16100;BME280;8154;50.830;12.082;2023-03-14T11:57:22;97127.66;;;24.43;31.58
16100;BME280;8154;50.830;12.082;2023-03-14T12:05:43;97125.09;;;24.58;31.57
16100;BME280;8154;50.830;12.082;2023-03-14T12:08:50;97118.72;;;24.64;31.36
16100;BME280;8154;50.830;12.082;2023-03-14T12:11:20;97136.63;;;24.64;31.56
16100;BME280;8154;50.830;12.082;2023-03-14T12:13:50;97124.28;;;24.58;31.68
16100;BME280;8154;50.830;12.082;2023-03-14T12:18:50;97129.06;;;24.56;31.40
16100;BME280;8154;50.830;12.082;2023-03-14T12:21:16;97122.44;;;24.58;31.33
16100;BME280;8154;50.830;12.082;2023-03-14T12:26:22;97128.25;;;24.55;31.39
16100;BME280;8154;50.830;12.082;2023-03-14T12:29:09;97124.78;;;24.50;31.83
16100;BME280;8154;50.830;12.082;2023-03-14T12:39:27;97131.44;;;24.47;31.65
16100;BME280;8154;50.830;12.082;2023-03-14T12:42:03;97119.19;;;24.51;31.50
16100;BME280;8154;50.830;12.082;2023-03-14T12:47:00;97115.16;;;24.54;31.57
16100;BME280;8154;50.830;12.082;2023-03-14T12:49:31;97120.25;;;24.50;31.47
16100;BME280;8154;50.830;12.082;2023-03-14T12:52:02;97113.28;;;24.49;31.60
16100;BME280;8154;50.830;12.082;2023-03-14T13:00:33;97114.66;;;24.57;31.66
16100;BME280;8154;50.830;12.082;2023-03-14T13:03:20;97108.50;;;24.51;31.67
16100;BME280;8154;50.830;12.082;2023-03-14T13:06:01;97091.13;;;24.49;31.84
16100;BME280;8154;50.830;12.082;2023-03-14T13:08:43;97099.91;;;24.44;31.55
16100;BME280;8154;50.830;12.082;2023-03-14T13:11:19;97109.81;;;24.49;31.88
16100;BME280;8154;50.830;12.082;2023-03-14T13:13:52;97099.41;;;24.47;32.04
16100;BME280;8154;50.830;12.082;2023-03-14T13:16:23;97101.00;;;24.48;32.04
16100;BME280;8154;50.830;12.082;2023-03-14T13:18:51;97092.44;;;24.46;32.00
16100;BME280;8154;50.830;12.082;2023-03-14T13:21:27;97094.06;;;24.52;31.53
16100;BME280;8154;50.830;12.082;2023-03-14T13:26:21;97088.53;;;24.64;31.54
16100;BME280;8154;50.830;12.082;2023-03-14T13:28:53;97094.47;;;24.66;31.79
16100;BME280;8154;50.830;12.082;2023-03-14T13:31:23;97095.22;;;24.61;31.43
16100;BME280;8154;50.830;12.082;2023-03-14T13:34:00;97094.91;;;24.58;31.74
16100;BME280;8154;50.830;12.082;2023-03-14T13:36:28;97092.78;;;24.55;31.72
16100;BME280;8154;50.830;12.082;2023-03-14T13:39:01;97082.88;;;24.50;31.58
16100;BME280;8154;50.830;12.082;2023-03-14T13:41:30;97086.56;;;24.49;31.56
16100;BME280;8154;50.830;12.082;2023-03-14T13:44:06;97081.50;;;24.48;31.93
16100;BME280;8154;50.830;12.082;2023-03-14T13:46:34;97073.75;;;24.41;31.93
16100;BME280;8154;50.830;12.082;2023-03-14T13:49:04;97079.34;;;24.40;32.08
16100;BME280;8154;50.830;12.082;2023-03-14T13:51:32;97075.03;;;24.39;32.07
16100;BME280;8154;50.830;12.082;2023-03-14T13:54:01;97080.38;;;24.39;32.07
16100;BME280;8154;50.830;12.082;2023-03-14T13:56:31;97072.38;;;24.39;31.94
16100;BME280;8154;50.830;12.082;2023-03-14T13:58:58;97080.69;;;24.42;31.95
16100;BME280;8154;50.830;12.082;2023-03-14T14:01:33;97079.59;;;24.43;31.71
16100;BME280;8154;50.830;12.082;2023-03-14T14:04:15;97080.16;;;24.45;31.70
16100;BME280;8154;50.830;12.082;2023-03-14T14:07:05;97083.66;;;24.51;32.01
16100;BME280;8154;50.830;12.082;2023-03-14T14:09:38;97080.72;;;24.52;31.61
16100;BME280;8154;50.830;12.082;2023-03-14T14:12:39;97082.09;;;24.55;31.58
16100;BME280;8154;50.830;12.082;2023-03-14T14:15:33;97081.25;;;24.49;31.73
16100;BME280;8154;50.830;12.082;2023-03-14T14:18:08;97087.94;;;24.52;31.92
16100;BME280;8154;50.830;12.082;2023-03-14T14:20:46;97086.56;;;24.49;31.79
16100;BME280;8154;50.830;12.082;2023-03-14T14:23:19;97083.38;;;24.47;31.74
16100;BME280;8154;50.830;12.082;2023-03-14T14:25:52;97090.25;;;24.38;31.81
16100;BME280;8154;50.830;12.082;2023-03-14T15:35:03;97382.38;;;24.42;31.67
16100;BME280;8154;50.830;12.082;2023-03-14T15:37:29;97393.91;;;24.26;32.26
16100;BME280;8154;50.830;12.082;2023-03-14T15:39:55;97379.59;;;24.10;32.39
16100;BME280;8154;50.830;12.082;2023-03-14T15:42:23;97404.50;;;24.16;32.16
16100;BME280;8154;50.830;12.082;2023-03-14T15:44:49;97414.16;;;24.22;32.22
16100;BME280;8154;50.830;12.082;2023-03-14T15:47:16;97422.28;;;24.32;32.14
16100;BME280;8154;50.830;12.082;2023-03-14T15:49:42;97442.59;;;24.33;31.99
16100;BME280;8154;50.830;12.082;2023-03-14T15:52:08;97451.09;;;24.30;31.87
16100;BME280;8154;50.830;12.082;2023-03-14T15:54:35;97469.41;;;24.21;32.11
16100;BME280;8154;50.830;12.082;2023-03-14T15:57:01;97485.75;;;24.25;32.22
16100;BME280;8154;50.830;12.082;2023-03-14T15:59:26;97498.66;;;24.33;32.17
16100;BME280;8154;50.830;12.082;2023-03-14T16:01:53;97512.00;;;24.33;32.14
16100;BME280;8154;50.830;12.082;2023-03-14T16:04:19;97550.16;;;24.33;32.07
16100;BME280;8154;50.830;12.082;2023-03-14T16:06:45;97538.06;;;24.26;32.19
16100;BME280;8154;50.830;12.082;2023-03-14T16:09:12;97546.25;;;24.19;32.31
16100;BME280;8154;50.830;12.082;2023-03-14T16:11:40;97578.25;;;24.19;32.50
16100;BME280;8154;50.830;12.082;2023-03-14T16:14:06;97576.75;;;24.23;32.10
16100;BME280;8154;50.830;12.082;2023-03-14T16:16:32;97580.06;;;24.14;32.22
16100;BME280;8154;50.830;12.082;2023-03-14T16:18:58;97588.81;;;24.09;32.54
16100;BME280;8154;50.830;12.082;2023-03-14T16:21:25;97593.31;;;24.09;32.72
16100;BME280;8154;50.830;12.082;2023-03-14T16:23:51;97619.59;;;24.17;32.32
16100;BME280;8154;50.830;12.082;2023-03-14T16:26:19;97639.41;;;24.21;32.18
16100;BME280;8154;50.830;12.082;2023-03-14T16:28:46;97666.75;;;24.28;32.43
16100;BME280;8154;50.830;12.082;2023-03-14T16:31:17;97687.88;;;24.29;32.29
16100;BME280;8154;50.830;12.082;2023-03-14T16:33:45;97727.28;;;24.22;32.09
16100;BME280;8154;50.830;12.082;2023-03-14T16:36:13;97747.34;;;24.25;32.06
16100;BME280;8154;50.830;12.082;2023-03-14T16:38:42;97773.31;;;24.29;32.06
16100;BME280;8154;50.830;12.082;2023-03-14T16:41:13;97806.16;;;24.30;32.28
16100;BME280;8154;50.830;12.082;2023-03-14T16:43:41;97820.38;;;24.19;32.22
16100;BME280;8154;50.830;12.082;2023-03-14T16:46:16;97835.47;;;24.13;32.25
16100;BME280;8154;50.830;12.082;2023-03-14T16:48:43;97863.63;;;24.21;32.23
16100;BME280;8154;50.830;12.082;2023-03-14T16:51:10;97862.03;;;24.20;32.39
16100;BME280;8154;50.830;12.082;2023-03-14T16:53:36;97871.09;;;24.19;32.17
16100;BME280;8154;50.830;12.082;2023-03-14T16:56:02;97883.97;;;24.22;32.19
16100;BME280;8154;50.830;12.082;2023-03-14T16:58:29;97902.53;;;24.17;32.24
16100;BME280;8154;50.830;12.082;2023-03-14T17:00:56;97921.81;;;24.19;32.21
16100;BME280;8154;50.830;12.082;2023-03-14T17:03:23;97932.00;;;24.22;32.34
16100;BME280;8154;50.830;12.082;2023-03-14T17:05:51;97938.38;;;24.21;32.49
16100;BME280;8154;50.830;12.082;2023-03-14T17:08:19;97955.91;;;24.28;32.43
16100;BME280;8154;50.830;12.082;2023-03-14T17:10:45;97964.81;;;24.34;32.12
16100;BME280;8154;50.830;12.082;2023-03-14T17:13:12;97962.41;;;24.21;32.08
16100;BME280;8154;50.830;12.082;2023-03-14T17:15:43;97967.41;;;24.17;32.34
16100;BME280;8154;50.830;12.082;2023-03-14T17:18:09;97981.44;;;24.24;32.22
16100;BME280;8154;50.830;12.082;2023-03-14T17:20:35;97984.69;;;24.26;32.23
16100;BME280;8154;50.830;12.082;2023-03-14T17:23:02;97989.78;;;24.28;31.99
16100;BME280;8154;50.830;12.082;2023-03-14T17:25:28;98003.84;;;24.23;32.32
16100;BME280;8154;50.830;12.082;2023-03-14T17:27:54;98022.78;;;24.22;32.42
16100;BME280;8154;50.830;12.082;2023-03-14T17:30:20;98023.00;;;24.20;32.27
16100;BME280;8154;50.830;12.082;2023-03-14T17:32:47;98038.69;;;24.28;32.47
16100;BME280;8154;50.830;12.082;2023-03-14T17:35:13;98038.69;;;24.28;32.13
16100;BME280;8154;50.830;12.082;2023-03-14T17:37:39;98049.34;;;24.28;32.16
16100;BME280;8154;50.830;12.082;2023-03-14T17:40:06;98059.22;;;24.28;32.24
16100;BME280;8154;50.830;12.082;2023-03-14T17:42:33;98057.91;;;24.30;32.15
16100;BME280;8154;50.830;12.082;2023-03-14T17:44:59;98057.00;;;24.25;32.05
16100;BME280;8154;50.830;12.082;2023-03-14T17:47:25;98067.34;;;24.21;32.53
16100;BME280;8154;50.830;12.082;2023-03-14T17:49:51;98073.25;;;24.12;32.52
16100;BME280;8154;50.830;12.082;2023-03-14T17:52:17;98081.63;;;24.15;32.42
16100;BME280;8154;50.830;12.082;2023-03-14T17:54:43;98096.09;;;24.19;32.28
16100;BME280;8154;50.830;12.082;2023-03-14T17:57:10;98099.84;;;24.18;32.53
16100;BME280;8154;50.830;12.082;2023-03-14T17:59:36;98104.72;;;24.21;32.05
16100;BME280;8154;50.830;12.082;2023-03-14T18:02:04;98112.47;;;24.23;32.09
16100;BME280;8154;50.830;12.082;2023-03-14T18:04:31;98107.16;;;24.23;32.21
16100;BME280;8154;50.830;12.082;2023-03-14T18:06:57;98119.78;;;24.27;32.08
16100;BME280;8154;50.830;12.082;2023-03-14T18:09:24;98119.00;;;24.27;32.09
16100;BME280;8154;50.830;12.082;2023-03-14T18:11:51;98125.84;;;24.23;32.47
16100;BME280;8154;50.830;12.082;2023-03-14T18:14:16;98130.47;;;24.27;32.22
16100;BME280;8154;50.830;12.082;2023-03-14T18:16:43;98136.88;;;24.26;32.29
16100;BME280;8154;50.830;12.082;2023-03-14T18:19:16;98146.16;;;24.24;31.98
16100;BME280;8154;50.830;12.082;2023-03-14T18:21:43;98156.84;;;24.24;32.17
16100;BME280;8154;50.830;12.082;2023-03-14T18:24:11;98162.63;;;24.21;32.58
16100;BME280;8154;50.830;12.082;2023-03-14T18:26:37;98161.59;;;24.22;32.40
16100;BME280;8154;50.830;12.082;2023-03-14T18:29:04;98166.81;;;24.17;32.62
16100;BME280;8154;50.830;12.082;2023-03-14T18:31:31;98168.78;;;24.21;32.42
16100;BME280;8154;50.830;12.082;2023-03-14T19:35:17;98332.13;;;24.30;32.30